Terminal Aerodrome Forecast
Issued by NWS Twin Cities, MN

Home | Current Version | Previous Version | Graphics & Text | Print | Product List | Glossary On
Versions: 1 2 3 4 5 6 7 8 9 10 11 12 13 14 15 16 17 18
000
FTUS43 KMPX 230520
TAFSTC
TAF
KSTC 230520Z 2306/2406 15010KT P6SM OVC070
     FM231900 15012KT P6SM OVC025
     FM232200 14009KT 4SM -RA BR OVC014
     FM240300 12006KT 2SM -RA BR OVC008=

USA.gov is the U.S. government's official web portal to all federal, state and local government web resources and services.